createdAt,value
2018-05-02T00:00:40.011Z,6.10
2018-05-02T00:03:08.509Z,6.00
2018-05-02T00:05:36.981Z,6.00
2018-05-02T00:08:05.661Z,6.10
2018-05-02T00:10:33.837Z,6.10
2018-05-02T00:13:02.114Z,6.10
2018-05-02T00:15:30.589Z,6.10
2018-05-02T00:17:59.189Z,6.10
2018-05-02T00:20:27.825Z,5.80
2018-05-02T00:22:57.077Z,5.50
2018-05-02T00:25:25.573Z,5.50
2018-05-02T00:27:54.051Z,5.40
2018-05-02T00:30:22.536Z,5.40
2018-05-02T00:32:51.001Z,5.90
2018-05-02T00:35:19.685Z,5.80
2018-05-02T00:37:48.220Z,5.70
2018-05-02T00:40:16.752Z,5.50
2018-05-02T00:42:45.242Z,5.60
2018-05-02T00:45:13.705Z,5.60
2018-05-02T00:47:42.185Z,5.70
2018-05-02T00:50:10.681Z,5.70
2018-05-02T00:52:39.216Z,5.50
2018-05-02T00:55:07.801Z,5.60
2018-05-02T00:57:36.416Z,5.70
2018-05-02T01:00:04.562Z,5.60
2018-05-02T01:02:33.162Z,5.60
2018-05-02T01:05:02.413Z,5.60
2018-05-02T01:07:30.889Z,5.60
2018-05-02T01:09:59.388Z,5.80
2018-05-02T01:12:27.958Z,5.80
2018-05-02T01:14:56.127Z,5.90
2018-05-02T01:17:24.621Z,6.00
2018-05-02T01:19:53.125Z,6.00
2018-05-02T01:22:23.105Z,6.00
2018-05-02T01:24:51.654Z,6.00
2018-05-02T01:27:20.918Z,6.40
2018-05-02T01:29:49.390Z,6.40
2018-05-02T01:32:17.540Z,6.50
2018-05-02T01:34:46.008Z,6.70
2018-05-02T01:37:14.487Z,6.70
2018-05-02T01:39:42.994Z,6.70
2018-05-02T01:42:11.505Z,6.80
2018-05-02T01:44:39.977Z,6.90
2018-05-02T01:47:08.482Z,6.90
2018-05-02T01:49:37.129Z,6.80
2018-05-02T01:52:05.293Z,6.70
2018-05-02T01:54:33.817Z,6.50
2018-05-02T01:57:02.493Z,6.50
2018-05-02T01:59:31.001Z,6.50
2018-05-02T02:01:59.473Z,6.50
2018-05-02T02:04:27.962Z,6.60
2018-05-02T02:06:56.433Z,6.70
2018-05-02T02:09:24.584Z,6.80
2018-05-02T02:11:53.048Z,6.80
2018-05-02T02:14:21.342Z,6.70
2018-05-02T02:16:49.836Z,6.90
2018-05-02T02:19:18.300Z,7.10
2018-05-02T02:21:46.952Z,7.20
2018-05-02T02:24:16.404Z,7.30
2018-05-02T02:26:45.044Z,7.20
2018-05-02T02:29:14.292Z,7.20
2018-05-02T02:31:42.770Z,7.10
2018-05-02T02:34:11.257Z,7.20
2018-05-02T02:36:39.722Z,7.10
2018-05-02T02:39:08.224Z,7.10
2018-05-02T02:41:36.706Z,7.10
2018-05-02T02:44:05.424Z,7.10
2018-05-02T02:46:33.885Z,7.30
2018-05-02T02:49:03.536Z,7.40
2018-05-02T02:51:32.833Z,7.50
2018-05-02T02:54:02.087Z,7.40
2018-05-02T02:56:30.573Z,7.30
2018-05-02T02:58:59.189Z,7.30
2018-05-02T03:01:27.657Z,7.40
2018-05-02T03:03:56.147Z,7.50
2018-05-02T03:06:24.768Z,7.60
2018-05-02T03:08:54.000Z,7.40
2018-05-02T03:11:22.497Z,7.40
2018-05-02T03:13:51.022Z,7.50
2018-05-02T03:16:20.284Z,7.70
2018-05-02T03:18:48.865Z,7.60
2018-05-02T03:21:17.338Z,7.70
2018-05-02T03:23:45.808Z,7.70
2018-05-02T03:26:14.304Z,7.70
2018-05-02T03:28:42.870Z,7.60
2018-05-02T03:31:11.353Z,7.60
2018-05-02T03:33:39.856Z,7.60
2018-05-02T03:36:08.322Z,7.60
2018-05-02T03:38:36.825Z,7.60
2018-05-02T03:41:05.296Z,7.50
2018-05-02T03:43:33.777Z,7.60
2018-05-02T03:46:02.249Z,7.50
2018-05-02T03:48:30.840Z,7.50
2018-05-02T03:50:59.537Z,7.40
2018-05-02T03:53:28.733Z,7.40
2018-05-02T03:55:57.221Z,7.40
2018-05-02T03:58:25.685Z,7.50
2018-05-02T04:01:05.552Z,7.50
2018-05-02T04:03:45.261Z,7.40
2018-05-02T04:06:16.373Z,7.50
2018-05-02T04:08:44.769Z,7.40
2018-05-02T04:11:14.036Z,7.40
2018-05-02T04:13:42.284Z,7.40
2018-05-02T04:16:10.765Z,7.60
2018-05-02T04:18:40.280Z,7.50
2018-05-02T04:21:08.760Z,7.50
2018-05-02T04:23:37.266Z,7.50
2018-05-02T04:26:05.797Z,7.40
2018-05-02T04:28:34.433Z,7.50
2018-05-02T04:31:02.905Z,7.50
2018-05-02T04:33:31.479Z,7.50
2018-05-02T04:35:59.953Z,7.60
2018-05-02T04:38:28.437Z,7.50
2018-05-02T04:40:56.909Z,7.60
2018-05-02T04:43:25.557Z,7.70
2018-05-02T04:45:54.025Z,7.70
2018-05-02T04:48:22.509Z,7.60
2018-05-02T04:50:50.977Z,7.60
2018-05-02T04:53:19.562Z,7.70
2018-05-02T04:55:48.042Z,7.60
2018-05-02T04:58:16.544Z,7.60
2018-05-02T05:00:45.044Z,7.70
2018-05-02T05:03:13.597Z,7.80
2018-05-02T05:05:42.064Z,7.80
2018-05-02T05:08:10.554Z,7.80
2018-05-02T05:10:39.025Z,7.80
2018-05-02T05:13:07.714Z,7.80
2018-05-02T05:15:36.210Z,7.80
2018-05-02T05:18:04.361Z,7.80
2018-05-02T05:20:32.869Z,7.90
2018-05-02T05:23:01.334Z,7.90
2018-05-02T05:25:29.821Z,8.00
2018-05-02T05:27:58.313Z,8.00
2018-05-02T05:30:26.789Z,8.00
2018-05-02T05:32:55.281Z,8.00
2018-05-02T05:35:24.757Z,8.10
2018-05-02T05:37:53.417Z,8.10
2018-05-02T05:40:23.404Z,8.20
2018-05-02T05:42:51.921Z,8.20
2018-05-02T05:45:21.264Z,8.20
2018-05-02T05:47:49.798Z,8.10
2018-05-02T05:50:18.336Z,8.20
2018-05-02T05:52:47.024Z,7.90
2018-05-02T05:55:15.513Z,8.00
2018-05-02T05:57:43.993Z,8.20
2018-05-02T06:00:12.486Z,8.40
2018-05-02T06:02:40.961Z,8.30
2018-05-02T06:05:09.471Z,8.30
2018-05-02T06:07:38.230Z,8.20
2018-05-02T06:10:08.388Z,8.30
2018-05-02T06:12:36.903Z,8.30
2018-05-02T06:15:05.561Z,8.50
2018-05-02T06:17:34.036Z,8.50
2018-05-02T06:20:02.537Z,8.50
2018-05-02T06:22:31.859Z,8.50
2018-05-02T06:25:00.861Z,8.50
2018-05-02T06:27:29.121Z,8.50
2018-05-02T06:29:58.352Z,8.50
2018-05-02T06:32:26.888Z,8.50
2018-05-02T06:34:55.367Z,8.60
2018-05-02T06:37:24.061Z,8.60
2018-05-02T06:39:54.135Z,8.50
2018-05-02T06:42:22.645Z,8.50
2018-05-02T06:44:51.122Z,8.60
2018-05-02T06:47:19.774Z,8.70
2018-05-02T06:49:48.241Z,8.70
2018-05-02T06:52:17.564Z,8.70
2018-05-02T06:54:46.091Z,8.60
2018-05-02T06:57:14.737Z,8.60
2018-05-02T06:59:43.244Z,8.80
2018-05-02T07:02:11.729Z,8.90
2018-05-02T07:04:40.317Z,9.00
2018-05-02T07:07:08.844Z,9.00
2018-05-02T07:09:37.474Z,9.10
2018-05-02T07:12:05.953Z,9.30
2018-05-02T07:14:34.529Z,9.30
2018-05-02T07:17:03.008Z,9.20
2018-05-02T07:19:31.588Z,9.10
2018-05-02T07:22:00.052Z,9.00
2018-05-02T07:24:28.536Z,9.10
2018-05-02T07:26:57.125Z,9.10
2018-05-02T07:29:25.616Z,8.90
2018-05-02T07:31:54.291Z,9.00
2018-05-02T07:34:22.793Z,8.90
2018-05-02T07:36:51.449Z,9.00
2018-05-02T07:39:20.687Z,9.20
2018-05-02T07:41:49.173Z,9.20
2018-05-02T07:44:17.651Z,9.30
2018-05-02T07:46:46.140Z,9.00
2018-05-02T07:49:14.617Z,9.00
2018-05-02T07:51:43.105Z,8.90
2018-05-02T07:54:11.602Z,9.10
2018-05-02T07:56:40.095Z,9.20
2018-05-02T07:59:08.797Z,9.20
2018-05-02T08:01:38.034Z,9.60
2018-05-02T08:04:06.181Z,9.50
2018-05-02T08:06:34.658Z,9.60
2018-05-02T08:09:03.367Z,9.50
2018-05-02T08:11:32.601Z,9.60
2018-05-02T08:14:01.089Z,9.60
2018-05-02T08:16:29.610Z,9.60
2018-05-02T08:18:58.271Z,10.00
2018-05-02T08:21:26.830Z,9.90
2018-05-02T08:23:55.311Z,9.60
2018-05-02T08:26:23.836Z,9.90
2018-05-02T08:28:52.305Z,10.40
2018-05-02T08:31:20.790Z,10.60
2018-05-02T08:33:49.276Z,10.60
2018-05-02T08:36:17.870Z,10.60
2018-05-02T08:38:47.209Z,11.20
2018-05-02T08:41:15.708Z,11.10
2018-05-02T08:43:44.287Z,11.00
2018-05-02T08:46:12.437Z,10.90
2018-05-02T08:48:41.689Z,11.40
2018-05-02T08:51:10.180Z,11.30
2018-05-02T08:53:39.583Z,11.30
2018-05-02T08:56:08.056Z,11.30
2018-05-02T08:58:36.551Z,11.30
2018-05-02T09:01:05.218Z,11.20
2018-05-02T09:03:33.741Z,11.50
2018-05-02T09:06:02.287Z,11.60
2018-05-02T09:08:30.805Z,11.80
2018-05-02T09:10:59.325Z,11.60
2018-05-02T09:13:28.605Z,12.00
2018-05-02T09:15:57.107Z,12.00
2018-05-02T09:18:26.337Z,12.50
2018-05-02T09:20:54.489Z,12.40
2018-05-02T09:23:22.962Z,12.30
2018-05-02T09:25:51.476Z,12.40
2018-05-02T09:28:20.021Z,12.40
2018-05-02T09:30:49.457Z,12.50
2018-05-02T09:33:17.987Z,12.50
2018-05-02T09:35:46.729Z,12.40
2018-05-02T09:38:15.209Z,13.10
2018-05-02T09:40:43.417Z,12.90
2018-05-02T09:43:11.992Z,13.00
2018-05-02T09:45:40.493Z,12.90
2018-05-02T09:48:09.776Z,12.90
2018-05-02T09:50:38.395Z,12.80
2018-05-02T09:53:06.882Z,12.80
2018-05-02T09:55:35.358Z,12.50
2018-05-02T09:58:03.874Z,12.70
2018-05-02T10:00:32.355Z,12.80
2018-05-02T10:03:00.905Z,13.00
2018-05-02T10:15:28.185Z,12.70
2018-05-02T10:17:56.685Z,12.60
2018-05-02T10:20:25.257Z,12.80
2018-05-02T10:22:53.877Z,12.90
2018-05-02T10:25:22.365Z,13.10
2018-05-02T10:27:50.846Z,12.70
2018-05-02T10:30:19.332Z,13.00
2018-05-02T10:35:18.095Z,13.30
2018-05-02T10:42:46.413Z,12.90
2018-05-02T10:45:14.993Z,12.90
2018-05-02T10:47:43.490Z,12.80
2018-05-02T10:52:42.219Z,12.80
2018-05-02T10:57:40.977Z,13.10
2018-05-02T11:27:34.186Z,13.00
2018-05-02T11:37:32.964Z,14.30
2018-05-02T11:40:02.308Z,14.30
2018-05-02T13:12:15.371Z,14.20
2018-05-02T18:48:50.274Z,13.40
2018-05-02T18:51:18.814Z,13.40
2018-05-02T18:53:47.307Z,13.40
2018-05-02T18:56:15.835Z,13.40
2018-05-02T18:58:45.118Z,13.30
2018-05-02T19:01:13.628Z,13.20
2018-05-02T19:03:43.820Z,13.20
2018-05-02T19:06:12.950Z,13.10
2018-05-02T19:08:42.404Z,13.10
2018-05-02T19:11:11.550Z,13.00
2018-05-02T19:13:45.874Z,12.90
2018-05-02T19:16:15.748Z,12.90
2018-05-02T19:18:50.518Z,12.90
2018-05-02T19:21:19.590Z,12.80
2018-05-02T19:23:48.953Z,12.70
2018-05-02T19:26:22.945Z,12.70
2018-05-02T19:28:51.436Z,12.60
2018-05-02T19:31:25.278Z,12.70
2018-05-02T19:33:54.482Z,12.60
2018-05-02T19:36:23.011Z,12.60
2018-05-02T19:38:51.523Z,12.60
2018-05-02T19:41:25.498Z,12.60
2018-05-02T19:44:00.228Z,12.60
2018-05-02T19:46:29.166Z,12.50
2018-05-02T19:48:57.675Z,12.50
2018-05-02T19:51:33.398Z,12.40
2018-05-02T19:54:01.955Z,12.40
2018-05-02T19:56:30.514Z,12.40
2018-05-02T19:59:00.687Z,12.40
2018-05-02T20:01:45.696Z,12.30
2018-05-02T20:04:14.221Z,12.30
2018-05-02T20:06:42.776Z,12.40
2018-05-02T20:09:17.561Z,12.30
2018-05-02T20:11:51.679Z,8.70
2018-05-02T20:14:20.190Z,12.30
2018-05-02T20:16:48.450Z,12.30
2018-05-02T20:19:16.982Z,12.30
2018-05-02T20:21:46.240Z,12.20
2018-05-02T20:24:14.806Z,12.30
2018-05-02T20:26:43.293Z,12.20
2018-05-02T20:29:11.794Z,12.10
2018-05-02T20:31:40.304Z,12.20
2018-05-02T20:34:11.583Z,12.10
2018-05-02T20:36:40.102Z,12.00
2018-05-02T20:39:08.589Z,12.00
2018-05-02T20:41:37.337Z,12.00
2018-05-02T20:44:06.022Z,12.00
2018-05-02T20:46:35.498Z,11.80
2018-05-02T20:49:04.786Z,11.90
2018-05-02T20:51:32.944Z,11.90
2018-05-02T20:54:01.496Z,11.70
2018-05-02T20:56:30.046Z,11.70
2018-05-02T20:58:59.319Z,11.60
2018-05-02T21:01:29.326Z,11.50
2018-05-02T21:03:57.812Z,11.60
2018-05-02T21:06:26.329Z,11.70
2018-05-02T21:08:55.572Z,11.70
2018-05-02T21:11:24.078Z,11.60
2018-05-02T21:13:52.567Z,11.60
2018-05-02T21:16:21.834Z,11.60
2018-05-02T21:18:50.325Z,11.60
2018-05-02T21:21:18.815Z,11.70
2018-05-02T21:23:47.396Z,11.70
2018-05-02T21:26:15.890Z,11.70
2018-05-02T21:28:44.374Z,11.60
2018-05-02T21:31:12.878Z,11.50
2018-05-02T21:33:41.381Z,11.50
2018-05-02T21:36:10.689Z,11.50
2018-05-02T21:38:39.187Z,11.50
2018-05-02T21:41:07.662Z,11.50
2018-05-02T21:43:36.186Z,11.40
2018-05-02T21:46:04.337Z,11.50
2018-05-02T21:48:33.051Z,11.50
2018-05-02T21:51:01.589Z,11.40
2018-05-02T21:53:30.223Z,11.40
2018-05-02T21:55:58.718Z,11.40
2018-05-02T21:58:29.477Z,11.30
2018-05-02T22:00:58.791Z,11.40
2018-05-02T22:03:27.432Z,11.40
2018-05-02T22:05:56.249Z,11.50
2018-05-02T22:08:25.623Z,11.40
2018-05-02T22:10:54.117Z,11.40
2018-05-02T22:13:24.096Z,11.40
2018-05-02T22:15:52.600Z,11.40
2018-05-02T22:18:21.091Z,11.40
2018-05-02T22:20:49.620Z,11.40
2018-05-02T22:23:18.888Z,11.40
2018-05-02T22:25:48.170Z,11.30
2018-05-02T22:28:16.729Z,11.20
2018-05-02T22:30:45.233Z,11.30
2018-05-02T22:33:13.716Z,11.30
2018-05-02T22:35:42.316Z,11.30
2018-05-02T22:38:10.828Z,11.30
2018-05-02T22:40:40.116Z,11.30
2018-05-02T22:43:08.646Z,11.30
2018-05-02T22:45:37.139Z,11.30
2018-05-02T22:48:05.890Z,11.20
2018-05-02T22:50:35.275Z,11.10
2018-05-02T22:53:04.628Z,11.20
2018-05-02T22:55:33.121Z,11.10
2018-05-02T22:58:01.585Z,11.10
2018-05-02T23:00:30.084Z,11.10
2018-05-02T23:02:58.581Z,11.20
2018-05-02T23:05:27.099Z,11.10
2018-05-02T23:07:56.341Z,11.10
2018-05-02T23:10:24.813Z,11.00
2018-05-02T23:12:53.444Z,11.00
2018-05-02T23:15:21.912Z,11.00
2018-05-02T23:17:50.412Z,11.00
2018-05-02T23:20:18.912Z,11.10
2018-05-02T23:22:47.806Z,11.10
2018-05-02T23:25:16.289Z,11.10
2018-05-02T23:27:44.795Z,11.10
2018-05-02T23:30:13.350Z,11.00
2018-05-02T23:32:42.870Z,11.20
2018-05-02T23:35:12.191Z,11.20
2018-05-02T23:37:40.665Z,11.20
2018-05-02T23:40:09.921Z,11.10
2018-05-02T23:42:38.384Z,11.10
2018-05-02T23:45:06.881Z,10.90
2018-05-02T23:47:35.360Z,10.90
2018-05-02T23:50:03.826Z,10.80
2018-05-02T23:52:32.303Z,10.70
2018-05-02T23:55:00.799Z,10.80
2018-05-02T23:57:29.288Z,10.90
2018-05-02T23:59:57.781Z,10.80
